Time;durP1;ratioP1;P1;durP2;ratioP2;P2;SDS_P1;SDS_P2;PMS_P1;PMS_P2;Temp;Humidity;BMP_temperature;BMP_pressure;BME280_temperature;BME280_humidity;BME280_pressure;Samples;Min_cycle;Max_cycle;Signal;HPM_P1;HPM_P2
2022/04/16 00:00:06;;;;;;;26.80;18.25;;;8.30;99.90;;;;;;5143146;27;20051;-71
2022/04/16 00:02:32;;;;;;;22.85;16.80;;;8.20;99.90;;;;;;5131313;27;20134;-71
2022/04/16 00:04:58;;;;;;;24.00;18.15;;;8.30;99.90;;;;;;5147727;27;20042;-71
2022/04/16 00:07:24;;;;;;;22.27;17.10;;;8.20;99.90;;;;;;5128732;27;20045;-71
2022/04/16 00:09:49;;;;;;;23.17;17.25;;;8.10;99.90;;;;;;5146920;27;20039;-71
2022/04/16 00:12:15;;;;;;;24.60;17.95;;;8.10;99.90;;;;;;5163942;27;20094;-71
2022/04/16 00:14:41;;;;;;;22.77;16.75;;;8.10;99.90;;;;;;5146800;27;20046;-71
2022/04/16 00:17:07;;;;;;;27.40;18.90;;;8.10;99.90;;;;;;5146605;27;20053;-71
2022/04/16 00:19:33;;;;;;;24.67;19.02;;;8.00;99.90;;;;;;5142089;27;20042;-71
2022/04/16 00:22:01;;;;;;;23.95;17.52;;;8.00;99.90;;;;;;5146735;27;20042;-71
2022/04/16 00:24:28;;;;;;;25.42;17.52;;;7.90;99.90;;;;;;5165821;27;20422;-71
2022/04/16 00:26:54;;;;;;;23.92;16.65;;;7.80;99.90;;;;;;5147722;27;20415;-71
2022/04/16 00:29:19;;;;;;;30.35;18.60;;;7.70;99.90;;;;;;5148135;27;20074;-71
2022/04/16 00:31:45;;;;;;;25.42;17.33;;;7.60;99.90;;;;;;5146751;27;20043;-70
2022/04/16 00:34:14;;;;;;;26.52;18.42;;;7.40;99.90;;;;;;5146356;27;20070;-70
2022/04/16 00:36:41;;;;;;;25.42;18.15;;;7.40;99.90;;;;;;5147094;27;20046;-70
2022/04/16 00:39:07;;;;;;;24.73;18.45;;;7.30;99.90;;;;;;5142989;27;20054;-70
2022/04/16 00:41:33;;;;;;;26.45;18.55;;;7.30;99.90;;;;;;5147665;27;20047;-70
2022/04/16 00:43:59;;;;;;;26.35;18.05;;;7.60;99.90;;;;;;5147729;27;20065;-71
2022/04/16 00:46:25;;;;;;;30.38;19.58;;;7.10;99.90;;;;;;5119028;28;20039;-71
2022/04/16 00:48:50;;;;;;;26.95;18.00;;;7.00;99.90;;;;;;5119839;28;20056;-70
2022/04/16 00:51:16;;;;;;;32.67;20.90;;;7.00;99.90;;;;;;5162378;27;20098;-71
2022/04/16 00:53:43;;;;;;;25.77;18.33;;;6.90;99.90;;;;;;5146645;27;20110;-71
2022/04/16 00:56:11;;;;;;;25.65;18.90;;;7.00;99.90;;;;;;5147651;27;20403;-71
2022/04/16 00:58:41;;;;;;;29.92;19.55;;;6.90;99.90;;;;;;5147445;27;20078;-71
2022/04/16 01:01:06;;;;;;;;;;;6.90;99.90;;;;;;5146758;27;20090;-71
2022/04/16 01:03:32;;;;;;;28.60;19.27;;;6.90;99.90;;;;;;5146362;27;19965;-71
2022/04/16 01:05:58;;;;;;;26.58;19.83;;;6.80;99.90;;;;;;5146189;27;20047;-70
2022/04/16 01:08:24;;;;;;;29.90;20.45;;;6.60;99.90;;;;;;5163498;27;20050;-71
2022/04/16 01:10:49;;;;;;;30.80;20.85;;;6.60;99.90;;;;;;5145161;27;20042;-71
2022/04/16 01:13:18;;;;;;;32.25;21.02;;;6.70;99.90;;;;;;5163730;27;20043;-70
2022/04/16 01:15:44;;;;;;;32.30;21.20;;;6.60;99.90;;;;;;5142715;28;20043;-70
2022/04/16 01:18:12;;;;;;;30.73;20.20;;;6.50;99.90;;;;;;5146054;27;20042;-70
2022/04/16 01:20:41;;;;;;;34.03;20.70;;;6.50;99.90;;;;;;5145997;27;20122;-69
2022/04/16 01:23:07;;;;;;;29.38;20.60;;;6.50;99.90;;;;;;5144087;27;20063;-69
2022/04/16 01:25:35;;;;;;;34.50;22.15;;;6.60;99.90;;;;;;5145658;27;20038;-70
2022/04/16 01:28:01;;;;;;;34.03;21.80;;;6.60;99.90;;;;;;5147944;27;20058;-70
2022/04/16 01:30:29;;;;;;;29.48;20.38;;;6.60;99.90;;;;;;5149282;27;20070;-70
2022/04/16 01:32:54;;;;;;;26.27;20.08;;;6.60;99.90;;;;;;5150769;27;20146;-70
2022/04/16 01:35:20;;;;;;;28.48;20.48;;;6.30;99.90;;;;;;5149556;27;20052;-70
2022/04/16 01:37:47;;;;;;;34.72;21.70;;;6.30;99.90;;;;;;5148169;27;20068;-70
2022/04/16 01:40:15;;;;;;;31.05;21.90;;;6.30;99.90;;;;;;5169057;27;20046;-70
2022/04/16 01:42:43;;;;;;;31.33;21.10;;;6.40;99.90;;;;;;5150362;27;20057;-70
2022/04/16 01:45:10;;;;;;;31.80;21.40;;;6.40;99.90;;;;;;5148927;27;20068;-70
2022/04/16 01:47:38;;;;;;;29.08;21.05;;;6.30;99.90;;;;;;5175654;27;20571;-70
2022/04/16 01:50:07;;;;;;;30.38;21.27;;;6.40;99.90;;;;;;5148353;27;20073;-70
2022/04/16 01:52:32;;;;;;;32.22;21.95;;;6.40;99.90;;;;;;5139735;27;20048;-70
2022/04/16 01:54:59;;;;;;;31.02;21.02;;;6.60;99.90;;;;;;5146691;27;20108;-70
2022/04/16 01:57:24;;;;;;;31.20;20.52;;;6.40;99.90;;;;;;5136876;27;20120;-70
2022/04/16 01:59:50;;;;;;;30.48;21.80;;;6.40;99.90;;;;;;5148831;27;20042;-70
2022/04/16 02:02:17;;;;;;;33.30;22.00;;;6.50;99.90;;;;;;5149227;27;20064;-70
2022/04/16 02:04:43;;;;;;;34.33;21.33;;;6.60;99.90;;;;;;5148908;27;20039;-70
2022/04/16 02:07:09;;;;;;;30.77;21.98;;;6.40;99.90;;;;;;5171726;27;20203;-70
2022/04/16 02:09:35;;;;;;;31.98;21.00;;;6.30;99.90;;;;;;5149056;27;20394;-71
2022/04/16 02:12:01;;;;;;;32.90;21.83;;;6.30;99.90;;;;;;5167557;27;20038;-71
2022/04/16 02:14:27;;;;;;;33.17;22.88;;;6.20;99.90;;;;;;5149510;27;20513;-70
2022/04/16 02:16:53;;;;;;;35.08;23.42;;;6.20;99.90;;;;;;5131977;27;20038;-71
2022/04/16 02:19:20;;;;;;;39.47;24.27;;;6.30;99.90;;;;;;5167420;27;20069;-71
2022/04/16 02:21:46;;;;;;;39.70;24.80;;;6.40;99.90;;;;;;5141964;27;20106;-71
2022/04/16 02:24:13;;;;;;;40.55;25.50;;;6.50;99.90;;;;;;5148541;27;20082;-71
2022/04/16 02:26:40;;;;;;;44.00;26.80;;;6.70;99.90;;;;;;5149445;27;20077;-71
2022/04/16 02:29:08;;;;;;;46.47;25.95;;;6.90;99.90;;;;;;5148688;27;20075;-71
2022/04/16 02:31:34;;;;;;;48.25;27.52;;;7.30;99.90;;;;;;5150053;27;20069;-71
2022/04/16 02:34:00;;;;;;;46.65;27.52;;;7.40;99.90;;;;;;5135855;27;20120;-71
2022/04/16 02:36:26;;;;;;;50.10;28.48;;;7.60;99.90;;;;;;5149759;27;20075;-71
2022/04/16 02:38:54;;;;;;;49.13;28.92;;;7.70;99.90;;;;;;5146426;27;20046;-71
2022/04/16 02:41:23;;;;;;;47.70;29.05;;;7.70;99.90;;;;;;5141899;27;20042;-71
2022/04/16 02:43:49;;;;;;;45.88;30.13;;;7.80;99.90;;;;;;5131427;27;20043;-71
2022/04/16 02:49:00;;;;;;;43.80;29.13;;;8.00;99.90;;;;;;5129129;27;20125;-71
2022/04/16 02:51:26;;;;;;;45.22;27.83;;;7.90;99.90;;;;;;5144659;27;20043;-71
2022/04/16 02:53:52;;;;;;;44.05;28.25;;;8.00;99.90;;;;;;5126221;27;20059;-71
2022/04/16 02:56:18;;;;;;;46.25;27.80;;;8.00;99.90;;;;;;5126649;27;20104;-71
2022/04/16 02:58:43;;;;;;;45.08;27.77;;;8.10;99.90;;;;;;5129155;27;20043;-71
2022/04/16 03:01:10;;;;;;;43.88;28.30;;;8.00;99.90;;;;;;5145191;27;20058;-71
2022/04/16 03:03:36;;;;;;;45.40;29.48;;;8.10;99.90;;;;;;5143167;27;20042;-71
2022/04/16 03:06:02;;;;;;;44.50;29.95;;;8.10;99.90;;;;;;5145925;27;20051;-71
2022/04/16 03:08:28;;;;;;;48.00;30.42;;;8.20;99.90;;;;;;5141476;27;20047;-71
2022/04/16 03:10:55;;;;;;;44.35;29.48;;;8.30;99.90;;;;;;5124632;27;20050;-71
2022/04/16 03:13:21;;;;;;;46.67;30.73;;;8.40;99.90;;;;;;5126856;27;20047;-71
2022/04/16 03:18:31;;;;;;;40.38;27.00;;;8.30;99.90;;;;;;5145881;27;20049;-71
2022/04/16 03:20:58;;;;;;;37.85;25.25;;;8.30;99.90;;;;;;5138346;27;20286;-70
2022/04/16 03:23:25;;;;;;;36.45;25.10;;;8.20;99.90;;;;;;5121824;27;20045;-70
2022/04/16 03:25:53;;;;;;;35.72;24.90;;;8.20;99.90;;;;;;5143064;27;20039;-70
2022/04/16 03:28:19;;;;;;;34.50;24.48;;;8.20;99.90;;;;;;5144160;27;20047;-70
2022/04/16 03:30:45;;;;;;;37.05;26.83;;;8.40;99.90;;;;;;5147239;27;20047;-70
2022/04/16 03:33:11;;;;;;;35.58;24.65;;;8.30;99.90;;;;;;5143170;27;20058;-70
2022/04/16 03:35:37;;;;;;;37.63;26.52;;;8.40;99.90;;;;;;5113566;27;20039;-71
2022/04/16 03:38:04;;;;;;;37.22;27.67;;;8.40;99.90;;;;;;5135295;27;20034;-71
2022/04/16 03:40:29;;;;;;;37.80;26.58;;;8.50;99.90;;;;;;5132944;27;20043;-71
2022/04/16 03:43:01;;;;;;;35.95;26.35;;;8.40;99.90;;;;;;5143749;27;20054;-71
2022/04/16 03:45:33;;;;;;;32.75;23.95;;;8.40;99.90;;;;;;5130827;27;20075;-71
2022/04/16 03:48:00;;;;;;;31.67;22.75;;;8.40;99.90;;;;;;5133213;27;20403;-71
2022/04/16 03:50:27;;;;;;;34.95;23.55;;;8.40;99.90;;;;;;5126291;27;20035;-71
2022/04/16 03:52:55;;;;;;;32.88;22.83;;;8.30;99.90;;;;;;5143175;27;20122;-71
2022/04/16 04:00:53;;;;;;;34.33;22.85;;;8.40;99.90;;;;;;5140092;27;20043;-70
2022/04/16 04:03:19;;;;;;;31.77;21.35;;;8.30;99.90;;;;;;5143221;27;20047;-70
2022/04/16 04:05:45;;;;;;;29.88;21.48;;;8.20;99.90;;;;;;5129447;27;20096;-70
2022/04/16 04:08:12;;;;;;;33.03;22.13;;;8.30;99.90;;;;;;5146250;27;20129;-70
2022/04/16 04:10:38;;;;;;;32.72;22.83;;;8.30;99.90;;;;;;5147942;27;20062;-70
2022/04/16 04:13:04;;;;;;;32.15;21.80;;;8.30;99.90;;;;;;5159410;27;20081;-70
2022/04/16 04:15:30;;;;;;;31.15;21.85;;;8.20;99.90;;;;;;5149431;27;20042;-70
2022/04/16 04:17:57;;;;;;;34.10;23.10;;;8.00;99.90;;;;;;5138152;27;20422;-70
2022/04/16 04:20:23;;;;;;;33.47;23.23;;;8.00;99.90;;;;;;5146343;27;20043;-70
2022/04/16 04:22:49;;;;;;;31.90;22.25;;;8.30;99.90;;;;;;5160665;27;20043;-70
2022/04/16 04:25:15;;;;;;;33.45;23.55;;;8.10;99.90;;;;;;5139294;27;20575;-70
2022/04/16 04:27:40;;;;;;;34.65;23.67;;;8.20;99.90;;;;;;5124933;28;20053;-71
2022/04/16 04:30:07;;;;;;;34.40;22.75;;;8.10;99.90;;;;;;5132416;27;20054;-71
2022/04/16 04:32:32;;;;;;;33.10;22.23;;;8.10;99.90;;;;;;5150548;27;20050;-71
2022/04/16 04:34:58;;;;;;;32.08;22.10;;;8.00;99.90;;;;;;5159556;27;20043;-71
2022/04/16 04:37:24;;;;;;;30.98;21.88;;;8.10;99.90;;;;;;5145130;27;20070;-71
2022/04/16 04:39:50;;;;;;;32.63;21.27;;;8.10;99.90;;;;;;5117843;28;20047;-71
2022/04/16 04:42:45;;;;;;;28.52;19.75;;;8.10;99.90;;;;;;5137075;27;20046;-71
2022/04/16 04:45:12;;;;;;;32.55;21.38;;;8.10;99.90;;;;;;5062432;28;20068;-71
2022/04/16 04:47:39;;;;;;;32.20;21.70;;;8.00;99.90;;;;;;5044497;28;20053;-71
2022/04/16 04:50:06;;;;;;;31.00;20.08;;;8.10;99.90;;;;;;5028210;28;20068;-71
2022/04/16 04:52:34;;;;;;;30.92;19.77;;;8.00;99.90;;;;;;5045669;28;20130;-71
2022/04/16 04:55:00;;;;;;;28.80;18.90;;;8.00;99.90;;;;;;5044973;28;20108;-71
2022/04/16 04:57:27;;;;;;;26.23;18.10;;;8.20;99.90;;;;;;5044206;28;20041;-71
2022/04/16 04:59:53;;;;;;;24.98;17.35;;;8.10;99.90;;;;;;5060460;28;20041;-71
2022/04/16 05:02:19;;;;;;;27.17;18.60;;;8.30;99.90;;;;;;5044759;28;20434;-71
2022/04/16 05:04:46;;;;;;;23.88;16.58;;;8.30;99.90;;;;;;5048048;28;20095;-71
2022/04/16 05:07:12;;;;;;;25.45;17.42;;;8.20;99.90;;;;;;5032144;28;20040;-71
2022/04/16 05:09:37;;;;;;;22.52;16.05;;;8.20;99.90;;;;;;5049601;28;20104;-71
2022/04/16 05:12:04;;;;;;;22.23;14.93;;;8.20;99.90;;;;;;5032201;28;20044;-71
2022/04/16 05:14:30;;;;;;;25.88;16.75;;;8.10;99.90;;;;;;5063885;28;20057;-71
2022/04/16 05:16:56;;;;;;;23.42;14.98;;;8.20;99.90;;;;;;5047783;28;20052;-71
2022/04/16 05:19:21;;;;;;;26.15;16.33;;;8.30;99.90;;;;;;5030952;28;20049;-71
2022/04/16 05:21:47;;;;;;;24.65;16.48;;;8.30;99.90;;;;;;5095351;27;20051;-71
2022/04/16 05:24:13;;;;;;;24.27;16.48;;;8.30;99.90;;;;;;5115950;27;20046;-71
2022/04/16 05:26:38;;;;;;;22.98;14.85;;;8.50;99.90;;;;;;5129467;27;20047;-71
2022/04/16 05:29:05;;;;;;;22.70;16.35;;;8.30;99.90;;;;;;5112535;27;20069;-71
2022/04/16 05:31:31;;;;;;;20.70;14.10;;;8.40;99.90;;;;;;5129142;27;20066;-71
2022/04/16 05:36:43;;;;;;;21.15;14.27;;;8.40;99.90;;;;;;5123652;27;20511;-71
2022/04/16 05:39:09;;;;;;;22.00;14.30;;;8.40;99.90;;;;;;5127997;27;20066;-71
2022/04/16 05:41:35;;;;;;;24.27;14.57;;;8.50;99.90;;;;;;5112165;27;20471;-71
2022/04/16 05:44:01;;;;;;;21.33;14.05;;;8.40;99.90;;;;;;5113125;27;20059;-71
2022/04/16 05:46:27;;;;;;;23.27;14.07;;;8.50;99.90;;;;;;5151261;27;20066;-71
2022/04/16 05:48:52;;;;;;;20.23;14.00;;;8.30;99.90;;;;;;5098288;28;20044;-71
2022/04/16 05:51:19;;;;;;;23.25;14.48;;;8.30;99.90;;;;;;5146874;27;20549;-71
2022/04/16 05:53:49;;;;;;;23.52;14.48;;;8.30;99.90;;;;;;5164114;27;20034;-71
2022/04/16 05:56:16;;;;;;;21.63;14.10;;;8.20;99.90;;;;;;5149847;27;20050;-71
2022/04/16 05:58:42;;;;;;;21.02;14.25;;;8.30;99.90;;;;;;5149165;27;20062;-71
2022/04/16 06:01:10;;;;;;;22.48;14.50;;;8.60;99.90;;;;;;5132293;27;20046;-71
2022/04/16 06:03:36;;;;;;;21.80;14.60;;;8.40;99.90;;;;;;5141899;27;20058;-72
2022/04/16 06:06:09;;;;;;;19.80;13.88;;;8.50;99.90;;;;;;5131962;27;20039;-72
2022/04/16 06:08:38;;;;;;;22.33;14.45;;;8.50;99.90;;;;;;5147368;27;20035;-70
2022/04/16 06:11:04;;;;;;;19.65;12.75;;;8.50;99.90;;;;;;5164287;27;20098;-69
2022/04/16 06:13:31;;;;;;;19.73;12.55;;;8.50;99.90;;;;;;5166470;27;20053;-71
2022/04/16 06:15:57;;;;;;;20.05;13.07;;;8.50;99.90;;;;;;5148759;27;20035;-71
2022/04/16 06:18:23;;;;;;;22.67;14.60;;;8.50;99.90;;;;;;5148192;27;20038;-71
2022/04/16 06:20:49;;;;;;;20.92;13.27;;;8.70;99.90;;;;;;5148839;27;20082;-73
2022/04/16 06:23:14;;;;;;;20.65;13.25;;;8.40;99.90;;;;;;5149217;27;20054;-70
2022/04/16 06:25:40;;;;;;;21.05;13.63;;;8.50;99.90;;;;;;5148471;27;20097;-70
2022/04/16 06:28:06;;;;;;;19.75;13.68;;;8.40;99.90;;;;;;5147023;27;20111;-70
2022/04/16 06:30:31;;;;;;;20.40;13.52;;;8.40;99.90;;;;;;5147648;27;20054;-70
2022/04/16 06:32:57;;;;;;;17.10;12.98;;;8.40;99.90;;;;;;5165455;27;20054;-70
2022/04/16 06:35:24;;;;;;;21.17;12.85;;;8.50;99.90;;;;;;5148458;27;20126;-70
2022/04/16 06:37:49;;;;;;;21.83;13.30;;;8.50;99.90;;;;;;5167068;27;20090;-70
2022/04/16 06:40:15;;;;;;;21.83;13.73;;;8.50;99.90;;;;;;5148759;27;20074;-77
2022/04/16 06:42:41;;;;;;;19.95;12.93;;;8.60;99.90;;;;;;5114098;27;20046;-73
2022/04/16 06:45:09;;;;;;;17.95;12.18;;;8.60;99.90;;;;;;5146441;27;20192;-71
2022/04/16 06:47:34;;;;;;;18.55;11.75;;;8.60;99.90;;;;;;5148178;27;20055;-71
2022/04/16 06:50:00;;;;;;;19.48;13.25;;;8.70;99.90;;;;;;5148257;27;20059;-72
2022/04/16 06:52:26;;;;;;;19.05;14.05;;;8.70;99.90;;;;;;5130904;27;20043;-71
2022/04/16 06:54:52;;;;;;;19.52;12.55;;;8.70;99.90;;;;;;5147933;27;20042;-71
2022/04/16 06:57:18;;;;;;;19.90;12.07;;;8.70;99.90;;;;;;5149012;27;20062;-71
2022/04/16 06:59:44;;;;;;;19.83;11.88;;;8.90;99.90;;;;;;5145278;27;20047;-71
2022/04/16 07:02:10;;;;;;;21.63;11.48;;;8.90;99.90;;;;;;5140297;27;20039;-89
2022/04/16 07:04:37;;;;;;;14.60;10.52;;;8.90;99.90;;;;;;5148970;27;20050;-89
2022/04/16 07:07:04;;;;;;;14.90;9.85;;;8.90;99.90;;;;;;5149232;27;20058;-82
2022/04/16 07:09:30;;;;;;;12.63;8.45;;;8.80;99.90;;;;;;5148036;27;20043;-88
2022/04/16 07:11:55;;;;;;;11.65;6.88;;;9.00;99.90;;;;;;5150764;27;20107;-88
2022/04/16 07:14:21;;;;;;;10.95;6.40;;;9.00;99.90;;;;;;5148982;27;20074;-88
2022/04/16 07:16:47;;;;;;;10.68;6.13;;;9.00;99.90;;;;;;5148920;27;20038;-89
2022/04/16 07:19:13;;;;;;;6.53;4.85;;;8.90;99.90;;;;;;5148124;27;20049;-85
2022/04/16 07:21:39;;;;;;;7.88;4.65;;;9.00;99.90;;;;;;5133421;27;20564;-86
2022/04/16 07:24:05;;;;;;;7.00;4.35;;;9.00;99.90;;;;;;5146208;27;20047;-86
2022/04/16 07:26:31;;;;;;;9.77;5.20;;;9.00;99.90;;;;;;5129628;27;20134;-87
2022/04/16 07:28:57;;;;;;;9.18;5.05;;;9.10;99.90;;;;;;5148406;27;20099;-83
2022/04/16 07:31:22;;;;;;;6.43;4.00;;;9.00;99.90;;;;;;5166956;27;20039;-72
2022/04/16 07:33:48;;;;;;;7.72;4.88;;;9.10;99.90;;;;;;5165928;27;20047;-75
2022/04/16 07:36:14;;;;;;;7.60;4.30;;;9.20;99.90;;;;;;5165803;27;20039;-75
2022/04/16 07:38:43;;;;;;;8.60;4.28;;;9.20;99.90;;;;;;5144903;27;20076;-75
2022/04/16 07:41:09;;;;;;;9.23;4.75;;;9.20;99.90;;;;;;5148388;27;20039;-76
2022/04/16 07:43:35;;;;;;;8.10;4.50;;;9.10;99.90;;;;;;5148498;27;20045;-76
2022/04/16 07:46:01;;;;;;;8.10;5.15;;;9.20;99.90;;;;;;5148017;27;20717;-77
2022/04/16 07:48:27;;;;;;;7.47;5.00;;;9.20;99.90;;;;;;5147812;27;20221;-77
2022/04/16 07:50:53;;;;;;;8.50;5.25;;;9.20;99.90;;;;;;5130143;27;20067;-77
2022/04/16 07:53:19;;;;;;;10.02;5.78;;;9.20;99.90;;;;;;5158805;27;20086;-77
2022/04/16 07:55:44;;;;;;;9.27;6.38;;;9.40;99.90;;;;;;5146950;27;20042;-77
2022/04/16 07:58:10;;;;;;;11.55;5.88;;;9.60;99.90;;;;;;5147393;27;20051;-77
2022/04/16 08:00:36;;;;;;;12.32;6.53;;;9.70;99.90;;;;;;5147003;27;20038;-77
2022/04/16 08:03:01;;;;;;;10.07;6.15;;;10.00;99.90;;;;;;5147054;27;20061;-77
2022/04/16 08:05:27;;;;;;;9.18;5.95;;;10.10;99.90;;;;;;5165289;27;20035;-78
2022/04/16 08:07:53;;;;;;;11.07;6.07;;;10.10;99.90;;;;;;5146988;27;20046;-77
2022/04/16 08:10:18;;;;;;;11.90;5.90;;;10.00;99.90;;;;;;5146661;27;20042;-77
2022/04/16 08:12:44;;;;;;;8.73;5.65;;;10.30;99.90;;;;;;5146960;27;20076;-77
2022/04/16 08:15:10;;;;;;;8.82;5.50;;;10.00;99.90;;;;;;5146766;27;20426;-77
2022/04/16 08:17:37;;;;;;;7.82;4.78;;;10.00;99.90;;;;;;5147746;27;20047;-77
2022/04/16 08:20:05;;;;;;;8.55;5.07;;;10.10;99.90;;;;;;5147679;27;20042;-77
2022/04/16 08:22:34;;;;;;;8.38;4.70;;;10.00;99.90;;;;;;5137257;28;20067;-77
2022/04/16 08:27:51;;;;;;;6.90;4.70;;;10.00;99.90;;;;;;5146815;27;20093;-77
2022/04/16 08:30:18;;;;;;;7.43;4.95;;;9.90;99.90;;;;;;5146650;27;20051;-78
2022/04/16 08:32:44;;;;;;;6.78;4.85;;;9.90;99.90;;;;;;5124282;28;20058;-78
2022/04/16 08:35:12;;;;;;;9.20;5.10;;;9.90;99.90;;;;;;5147073;27;20506;-77
2022/04/16 08:37:38;;;;;;;7.60;4.50;;;10.20;99.90;;;;;;5174834;27;20051;-76
2022/04/16 08:40:05;;;;;;;8.07;4.80;;;10.10;99.90;;;;;;5155692;27;20050;-76
2022/04/16 08:42:33;;;;;;;7.65;4.53;;;10.20;99.90;;;;;;5169563;27;20086;-75
2022/04/16 08:45:01;;;;;;;10.65;5.10;;;10.10;99.90;;;;;;5170409;27;20043;-75
2022/04/16 08:47:28;;;;;;;13.52;5.15;;;10.20;99.90;;;;;;5163769;27;20095;-74
2022/04/16 08:49:53;;;;;;;9.40;5.05;;;10.40;99.90;;;;;;5139702;27;20475;-75
2022/04/16 08:52:22;;;;;;;8.18;5.30;;;10.30;99.90;;;;;;5139373;27;20076;-75
2022/04/16 08:54:48;;;;;;;7.88;4.43;;;10.60;99.90;;;;;;5165550;27;20039;-74
2022/04/16 08:57:13;;;;;;;12.25;4.47;;;10.60;99.90;;;;;;5151791;27;20035;-70
2022/04/16 08:59:39;;;;;;;8.18;4.63;;;10.40;99.90;;;;;;5135350;27;20079;-75
2022/04/16 09:02:05;;;;;;;9.90;4.85;;;10.50;99.90;;;;;;5148899;27;20102;-75
2022/04/16 09:04:31;;;;;;;13.70;4.78;;;10.70;99.90;;;;;;5150406;27;20095;-75
2022/04/16 09:07:03;;;;;;;7.47;4.65;;;10.70;99.90;;;;;;5149916;27;20046;-76
2022/04/16 09:09:29;;;;;;;14.15;3.78;;;10.80;99.90;;;;;;5149518;27;20054;-77
2022/04/16 09:11:56;;;;;;;5.82;2.97;;;10.80;99.90;;;;;;5115948;27;20098;-76
2022/04/16 09:14:35;;;;;;;4.13;2.38;;;10.90;99.90;;;;;;5149980;27;20086;-75
2022/04/16 09:17:07;;;;;;;3.80;2.50;;;10.90;99.90;;;;;;5151172;27;20043;-81
2022/04/16 09:19:32;;;;;;;3.15;2.53;;;11.00;99.90;;;;;;5147966;27;20046;-79
2022/04/16 09:21:58;;;;;;;3.58;2.30;;;11.20;99.90;;;;;;5130556;27;20138;-75
2022/04/16 09:24:24;;;;;;;3.22;2.13;;;11.10;99.90;;;;;;5169211;27;20054;-74
2022/04/16 09:26:50;;;;;;;3.88;2.33;;;11.20;99.90;;;;;;5129322;27;20039;-74
2022/04/16 09:29:17;;;;;;;5.93;3.15;;;11.10;99.90;;;;;;5149912;27;20053;-74
2022/04/16 09:31:46;;;;;;;4.68;2.40;;;11.40;99.90;;;;;;5149700;27;20050;-74
2022/04/16 09:34:23;;;;;;;4.30;1.90;;;11.30;99.90;;;;;;5149635;27;20106;-75
2022/04/16 09:36:50;;;;;;;6.25;2.70;;;11.40;99.90;;;;;;5167811;27;20066;-76
2022/04/16 09:39:16;;;;;;;6.75;2.50;;;11.50;99.90;;;;;;5142699;27;20039;-76
2022/04/16 09:41:46;;;;;;;4.25;2.17;;;11.50;99.90;;;;;;5163626;27;20042;-77
2022/04/16 09:44:20;;;;;;;2.97;1.95;;;11.50;99.90;;;;;;5150821;27;20130;-77
2022/04/16 09:46:47;;;;;;;3.50;2.17;;;11.60;99.90;;;;;;5138896;27;20043;-78
2022/04/16 09:49:16;;;;;;;2.58;2.00;;;11.60;99.90;;;;;;5144823;27;20050;-80
2022/04/16 09:51:46;;;;;;;4.43;2.03;;;11.70;99.90;;;;;;5117379;27;20049;-81
2022/04/16 09:54:13;;;;;;;4.32;2.00;;;11.60;99.90;;;;;;5147776;27;20072;-80
2022/04/16 09:56:40;;;;;;;2.03;1.77;;;11.80;99.90;;;;;;5145530;27;20047;-80
2022/04/16 09:59:08;;;;;;;2.70;1.98;;;12.00;99.90;;;;;;5128020;27;20043;-80
2022/04/16 10:01:38;;;;;;;2.83;1.88;;;12.00;99.90;;;;;;5128825;27;20097;-80
2022/04/16 10:04:04;;;;;;;1.70;1.60;;;12.10;99.90;;;;;;5146856;27;20067;-71
2022/04/16 10:06:30;;;;;;;2.83;1.85;;;12.30;99.90;;;;;;5128408;27;20069;-80
2022/04/16 10:09:13;;;;;;;3.20;1.33;;;12.40;99.90;;;;;;5124499;27;20039;-79
2022/04/16 10:15:06;;;;;;;4.50;1.80;;;12.40;99.90;;;;;;5144338;27;20058;-78
2022/04/16 10:17:49;;;;;;;2.28;1.45;;;12.40;97.00;;;;;;5127023;27;20103;-74
2022/04/16 10:20:25;;;;;;;2.80;1.40;;;12.50;96.80;;;;;;5146592;27;20054;-74
2022/04/16 10:22:55;;;;;;;1.77;1.55;;;12.50;95.90;;;;;;5148263;27;20035;-73
2022/04/16 10:25:36;;;;;;;4.70;1.48;;;12.50;94.20;;;;;;5110838;27;20502;-74
2022/04/16 10:28:05;;;;;;;;;;;12.50;99.00;;;;;;5128575;27;20047;-73
2022/04/16 10:30:42;;;;;;;4.63;1.63;;;12.50;99.40;;;;;;5124759;27;19920;-75
2022/04/16 10:33:21;;;;;;;4.47;1.50;;;12.50;99.90;;;;;;5127023;27;20039;-76
2022/04/16 10:35:56;;;;;;;1.73;1.52;;;12.60;98.40;;;;;;5128278;27;20065;-76
2022/04/16 10:38:33;;;;;;;3.47;1.58;;;12.50;99.90;;;;;;5126672;27;20039;-77
2022/04/16 10:41:01;;;;;;;5.15;1.52;;;12.60;99.90;;;;;;5125847;27;20042;-78
2022/04/16 10:43:32;;;;;;;3.85;1.58;;;12.60;99.90;;;;;;5127601;27;20055;-77
2022/04/16 10:46:02;;;;;;;1.40;1.30;;;13.00;99.90;;;;;;5108486;27;20054;-78
2022/04/16 10:48:31;;;;;;;1.50;1.40;;;12.80;96.40;;;;;;5128535;27;20090;-78
2022/04/16 10:50:58;;;;;;;3.00;1.50;;;13.30;88.90;;;;;;5111914;27;20096;-78
2022/04/16 10:53:28;;;;;;;1.98;1.40;;;13.30;85.00;;;;;;5111359;27;20077;-78
2022/04/16 10:55:54;;;;;;;2.05;1.85;;;13.00;91.90;;;;;;5087568;28;20096;-78
2022/04/16 10:58:28;;;;;;;2.95;1.80;;;13.00;92.60;;;;;;5119962;27;20103;-78
2022/04/16 11:01:05;;;;;;;3.10;1.45;;;13.00;92.80;;;;;;5128553;27;20050;-78
2022/04/16 11:03:30;;;;;;;2.00;1.52;;;13.00;92.20;;;;;;5111105;27;20038;-78
2022/04/16 11:06:09;;;;;;;1.67;1.40;;;13.20;83.00;;;;;;5107811;27;20102;-77
2022/04/16 11:08:36;;;;;;;1.63;1.52;;;13.10;83.80;;;;;;5125318;27;20035;-75
2022/04/16 11:11:02;;;;;;;4.28;1.60;;;13.10;77.60;;;;;;5127815;27;20058;-71
2022/04/16 11:13:32;;;;;;;3.92;1.77;;;13.40;78.20;;;;;;5145032;27;20419;-69
2022/04/16 11:15:58;;;;;;;;;;;13.30;81.20;;;;;;5126644;27;20043;-76
2022/04/16 11:18:24;;;;;;;;;;;13.20;81.80;;;;;;5125948;27;19919;-74
2022/04/16 11:20:56;;;;;;;;;;;13.20;81.90;;;;;;5127951;27;19946;-75
2022/04/16 11:23:26;;;;;;;;;;;13.20;88.50;;;;;;5128024;27;19950;-74
2022/04/16 11:34:17;;;;;;;;;;;13.50;90.10;;;;;;5128260;27;19926;-75
2022/04/16 11:36:50;;;;;;;;;;;13.40;91.80;;;;;;5162032;27;19959;-74
2022/04/16 11:39:16;;;;;;;;;;;13.50;89.60;;;;;;5124754;27;19950;-75
2022/04/16 11:41:55;;;;;;;;;;;13.60;82.70;;;;;;5146443;27;19923;-75
2022/04/16 11:44:44;;;;;;;;;;;13.60;83.50;;;;;;5127965;27;19930;-75
2022/04/16 11:47:11;;;;;;;;;;;13.80;82.40;;;;;;5140193;27;19919;-75
2022/04/16 11:49:39;;;;;;;;;;;13.70;89.10;;;;;;5131312;27;19998;-75
2022/04/16 11:52:05;;;;;;;;;;;13.70;88.60;;;;;;5158507;27;19973;-75
2022/04/16 11:54:31;;;;;;;;;;;13.70;87.80;;;;;;5169035;27;19919;-75
2022/04/16 11:56:57;;;;;;;;;;;13.80;85.40;;;;;;5168579;27;19919;-75
2022/04/16 11:59:24;;;;;;;;;;;13.90;71.40;;;;;;5148251;27;19940;-75
2022/04/16 12:02:09;;;;;;;;;;;14.00;71.30;;;;;;5148242;27;19951;-75
2022/04/16 12:04:41;;;;;;;;;;;14.10;75.00;;;;;;5120217;27;19919;-75
2022/04/16 12:07:11;;;;;;;;;;;14.10;76.80;;;;;;5144162;27;19941;-75
2022/04/16 12:09:37;;;;;;;;;;;14.30;74.50;;;;;;5147379;27;19999;-75
2022/04/16 12:12:05;;;;;;;;;;;14.20;72.40;;;;;;5146865;27;19919;-75
2022/04/16 12:14:31;;;;;;;;;;;14.60;68.50;;;;;;5147149;27;19919;-75
2022/04/16 12:17:00;;;;;;;;;;;14.70;69.50;;;;;;5147564;27;19974;-75
2022/04/16 12:19:33;;;;;;;;;;;14.70;67.60;;;;;;5147272;27;19926;-75
2022/04/16 12:21:59;;;;;;;;;;;14.60;71.10;;;;;;5130420;27;19922;-75
2022/04/16 12:24:25;;;;;;;;;;;14.60;72.80;;;;;;5140925;28;19940;-75
2022/04/16 12:26:51;;;;;;;;;;;14.70;74.60;;;;;;5138115;28;19926;-75
2022/04/16 12:29:18;;;;;;;;;;;14.60;67.90;;;;;;5149117;27;19919;-75
2022/04/16 12:31:54;;;;;;;;;;;14.80;71.90;;;;;;5147970;27;20009;-75
2022/04/16 12:34:20;;;;;;;;;;;14.90;70.70;;;;;;5118861;27;19927;-74
2022/04/16 12:36:45;;;;;;;;;;;14.90;69.80;;;;;;5147780;27;19983;-74
2022/04/16 12:39:12;;;;;;;;;;;15.00;68.80;;;;;;5147363;27;20302;-75
2022/04/16 12:41:38;;;;;;;;;;;15.10;67.30;;;;;;5146490;27;19923;-75
2022/04/16 12:44:04;;;;;;;;;;;15.30;61.40;;;;;;5124922;27;19926;-75
2022/04/16 12:46:29;;;;;;;;;;;15.30;65.10;;;;;;5144376;27;19919;-73
2022/04/16 12:48:55;;;;;;;;;;;15.30;60.60;;;;;;5148195;27;19919;-73
2022/04/16 12:51:21;;;;;;;;;;;15.40;61.00;;;;;;5146509;27;19936;-73
2022/04/16 12:53:46;;;;;;;;;;;15.50;61.30;;;;;;5138967;28;19919;-73
2022/04/16 12:56:12;;;;;;;;;;;15.50;63.80;;;;;;5146077;27;19993;-73
2022/04/16 12:58:37;;;;;;;;;;;15.60;60.00;;;;;;5147903;27;19919;-72
2022/04/16 13:01:03;;;;;;;;;;;15.80;59.00;;;;;;5147034;27;19973;-72
2022/04/16 13:03:28;;;;;;;;;;;15.80;57.60;;;;;;5147325;27;19940;-72
2022/04/16 13:05:54;;;;;;;;;;;15.90;57.60;;;;;;5146899;27;19919;-72
2022/04/16 13:08:20;;;;;;;;;;;16.00;55.70;;;;;;5147931;27;19923;-74
2022/04/16 13:10:45;;;;;;;;;;;16.00;56.20;;;;;;5148059;27;20033;-75
2022/04/16 13:13:11;;;;;;;;;;;16.40;55.60;;;;;;5148176;27;20441;-75
2022/04/16 13:15:36;;;;;;;;;;;16.30;58.20;;;;;;5146762;27;19919;-75
2022/04/16 13:18:03;;;;;;;;;;;16.30;59.20;;;;;;5147014;27;19918;-75
2022/04/16 13:20:29;;;;;;;;;;;16.40;63.70;;;;;;5149745;27;19927;-75
2022/04/16 13:22:54;;;;;;;;;;;16.70;58.90;;;;;;5147932;27;20301;-73